sensor_id;sensor_type;location;lat;lon;timestamp;pressure;altitude;pressure_sealevel;temperature;humidity
41712;BME280;27399;51.516;13.670;2022-10-20T00:00:07;101592.81;;;8.31;78.37
41712;BME280;27399;51.516;13.670;2022-10-20T00:02:33;101587.66;;;8.37;79.03
41712;BME280;27399;51.516;13.670;2022-10-20T00:04:59;101585.75;;;8.32;78.81
41712;BME280;27399;51.516;13.670;2022-10-20T00:07:24;101584.66;;;8.20;80.09
41712;BME280;27399;51.516;13.670;2022-10-20T00:09:50;101578.72;;;8.34;80.16
41712;BME280;27399;51.516;13.670;2022-10-20T00:12:15;101577.66;;;8.26;80.36
41712;BME280;27399;51.516;13.670;2022-10-20T00:14:41;101572.31;;;8.24;80.01
41712;BME280;27399;51.516;13.670;2022-10-20T00:17:07;101563.72;;;8.37;79.39
41712;BME280;27399;51.516;13.670;2022-10-20T00:19:32;101572.22;;;8.19;80.16
41712;BME280;27399;51.516;13.670;2022-10-20T00:21:59;101566.13;;;8.24;80.32
41712;BME280;27399;51.516;13.670;2022-10-20T00:24:24;101562.63;;;8.26;80.09
41712;BME280;27399;51.516;13.670;2022-10-20T00:26:50;101567.59;;;8.07;80.06
41712;BME280;27399;51.516;13.670;2022-10-20T00:29:16;101556.09;;;8.10;80.51
41712;BME280;27399;51.516;13.670;2022-10-20T00:31:42;101557.22;;;8.21;80.58
41712;BME280;27399;51.516;13.670;2022-10-20T00:34:08;101554.03;;;7.94;80.95
41712;BME280;27399;51.516;13.670;2022-10-20T00:36:34;101556.22;;;8.16;80.43
41712;BME280;27399;51.516;13.670;2022-10-20T00:39:01;101555.31;;;8.14;79.64
41712;BME280;27399;51.516;13.670;2022-10-20T00:41:28;101556.09;;;8.10;79.88
41712;BME280;27399;51.516;13.670;2022-10-20T00:43:56;101549.09;;;8.14;80.10
41712;BME280;27399;51.516;13.670;2022-10-20T00:46:29;101541.97;;;8.11;80.18
41712;BME280;27399;51.516;13.670;2022-10-20T00:48:59;101541.28;;;8.21;79.71
41712;BME280;27399;51.516;13.670;2022-10-20T00:51:29;101528.50;;;8.49;77.89
41712;BME280;27399;51.516;13.670;2022-10-20T00:54:02;101537.94;;;8.33;77.55
41712;BME280;27399;51.516;13.670;2022-10-20T00:56:29;101541.19;;;8.17;78.16
41712;BME280;27399;51.516;13.670;2022-10-20T00:58:55;101525.41;;;8.26;79.09
41712;BME280;27399;51.516;13.670;2022-10-20T01:01:21;101532.97;;;8.04;79.59
41712;BME280;27399;51.516;13.670;2022-10-20T01:03:49;101528.59;;;8.08;78.46
41712;BME280;27399;51.516;13.670;2022-10-20T01:06:17;101525.00;;;8.06;78.90
41712;BME280;27399;51.516;13.670;2022-10-20T01:08:44;101529.69;;;8.18;78.20
41712;BME280;27399;51.516;13.670;2022-10-20T01:14:20;101524.94;;;8.01;79.34
41712;BME280;27399;51.516;13.670;2022-10-20T01:34:05;101502.19;;;7.70;78.43
41712;BME280;27399;51.516;13.670;2022-10-20T01:36:50;101496.38;;;7.89;78.87
41712;BME280;27399;51.516;13.670;2022-10-20T01:39:42;101496.22;;;7.83;78.61
41712;BME280;27399;51.516;13.670;2022-10-20T01:42:13;101498.13;;;7.89;78.67
41712;BME280;27399;51.516;13.670;2022-10-20T01:44:42;101490.03;;;7.81;79.93
41712;BME280;27399;51.516;13.670;2022-10-20T01:47:09;101480.28;;;7.82;79.66
41712;BME280;27399;51.516;13.670;2022-10-20T01:49:36;101466.84;;;7.74;80.01
41712;BME280;27399;51.516;13.670;2022-10-20T01:52:02;101464.84;;;7.64;79.79
41712;BME280;27399;51.516;13.670;2022-10-20T01:54:28;101466.63;;;7.62;79.75
41712;BME280;27399;51.516;13.670;2022-10-20T01:57:35;101466.75;;;7.26;80.12
41712;BME280;27399;51.516;13.670;2022-10-20T02:00:12;101467.06;;;7.40;79.58
41712;BME280;27399;51.516;13.670;2022-10-20T02:08:38;101457.56;;;7.52;80.07
41712;BME280;27399;51.516;13.670;2022-10-20T02:11:13;101440.66;;;7.48;79.79
41712;BME280;27399;51.516;13.670;2022-10-20T02:13:43;101441.81;;;7.63;79.99
41712;BME280;27399;51.516;13.670;2022-10-20T02:16:19;101436.47;;;7.59;79.81
41712;BME280;27399;51.516;13.670;2022-10-20T02:18:46;101439.25;;;7.66;79.43
41712;BME280;27399;51.516;13.670;2022-10-20T02:21:13;101431.13;;;7.58;80.07
41712;BME280;27399;51.516;13.670;2022-10-20T02:23:43;101429.81;;;7.37;80.30
41712;BME280;27399;51.516;13.670;2022-10-20T02:26:13;101434.63;;;7.12;80.29
41712;BME280;27399;51.516;13.670;2022-10-20T02:28:42;101418.91;;;7.23;80.35
41712;BME280;27399;51.516;13.670;2022-10-20T02:31:09;101416.41;;;7.29;80.31
41712;BME280;27399;51.516;13.670;2022-10-20T02:33:35;101404.44;;;7.50;79.86
41712;BME280;27399;51.516;13.670;2022-10-20T02:36:04;101393.81;;;7.50;79.60
41712;BME280;27399;51.516;13.670;2022-10-20T02:38:30;101391.09;;;7.46;79.61
41712;BME280;27399;51.516;13.670;2022-10-20T02:40:55;101392.84;;;7.47;79.37
41712;BME280;27399;51.516;13.670;2022-10-20T02:43:21;101398.28;;;7.51;79.22
41712;BME280;27399;51.516;13.670;2022-10-20T02:45:47;101393.75;;;7.47;78.66
41712;BME280;27399;51.516;13.670;2022-10-20T02:48:12;101387.50;;;7.43;79.53
41712;BME280;27399;51.516;13.670;2022-10-20T02:50:38;101382.38;;;7.54;79.11
41712;BME280;27399;51.516;13.670;2022-10-20T02:53:04;101384.00;;;7.48;79.49
41712;BME280;27399;51.516;13.670;2022-10-20T02:55:30;101374.31;;;7.48;78.59
41712;BME280;27399;51.516;13.670;2022-10-20T02:57:56;101391.47;;;7.67;78.08
41712;BME280;27399;51.516;13.670;2022-10-20T03:00:22;101396.34;;;7.44;78.45
41712;BME280;27399;51.516;13.670;2022-10-20T03:02:47;101378.38;;;7.31;79.18
41712;BME280;27399;51.516;13.670;2022-10-20T03:05:13;101386.59;;;7.43;79.05
41712;BME280;27399;51.516;13.670;2022-10-20T03:07:39;101381.38;;;7.48;78.26
41712;BME280;27399;51.516;13.670;2022-10-20T03:10:05;101379.97;;;7.21;79.23
41712;BME280;27399;51.516;13.670;2022-10-20T03:12:30;101373.97;;;7.31;78.42
41712;BME280;27399;51.516;13.670;2022-10-20T03:14:56;101369.72;;;7.39;78.82
41712;BME280;27399;51.516;13.670;2022-10-20T03:17:22;101380.84;;;7.21;78.78
41712;BME280;27399;51.516;13.670;2022-10-20T03:19:48;101373.97;;;7.31;79.04
41712;BME280;27399;51.516;13.670;2022-10-20T03:22:13;101374.75;;;7.27;79.36
41712;BME280;27399;51.516;13.670;2022-10-20T03:24:39;101372.28;;;7.35;79.56
41712;BME280;27399;51.516;13.670;2022-10-20T03:27:05;101362.59;;;7.37;79.45
41712;BME280;27399;51.516;13.670;2022-10-20T03:29:30;101363.44;;;7.36;79.49
41712;BME280;27399;51.516;13.670;2022-10-20T03:31:56;101360.00;;;7.40;79.47
41712;BME280;27399;51.516;13.670;2022-10-20T03:34:22;101346.69;;;7.38;78.86
41712;BME280;27399;51.516;13.670;2022-10-20T03:36:47;101353.41;;;7.65;78.80
41712;BME280;27399;51.516;13.670;2022-10-20T03:39:13;101349.31;;;7.37;79.34
41712;BME280;27399;51.516;13.670;2022-10-20T03:41:38;101351.22;;;7.44;78.67
41712;BME280;27399;51.516;13.670;2022-10-20T03:44:04;101346.50;;;7.27;79.55
41712;BME280;27399;51.516;13.670;2022-10-20T03:46:29;101347.63;;;7.42;79.85
41712;BME280;27399;51.516;13.670;2022-10-20T03:48:55;101353.91;;;7.46;79.47
41712;BME280;27399;51.516;13.670;2022-10-20T03:51:21;101347.63;;;7.42;79.80
41712;BME280;27399;51.516;13.670;2022-10-20T03:53:46;101352.75;;;7.33;79.68
41712;BME280;27399;51.516;13.670;2022-10-20T03:56:16;101343.91;;;7.32;80.39
41712;BME280;27399;51.516;13.670;2022-10-20T03:58:42;101342.47;;;7.48;80.00
41712;BME280;27399;51.516;13.670;2022-10-20T04:01:16;101346.03;;;7.50;80.12
41712;BME280;27399;51.516;13.670;2022-10-20T04:03:43;101338.78;;;7.40;80.23
41712;BME280;27399;51.516;13.670;2022-10-20T04:06:11;101352.91;;;7.40;80.32
41712;BME280;27399;51.516;13.670;2022-10-20T04:08:36;101341.53;;;7.46;80.45
41712;BME280;27399;51.516;13.670;2022-10-20T04:11:02;101338.88;;;7.46;80.73
41712;BME280;27399;51.516;13.670;2022-10-20T04:13:28;101342.53;;;7.51;81.04
41712;BME280;27399;51.516;13.670;2022-10-20T04:15:53;101331.69;;;7.40;80.86
41712;BME280;27399;51.516;13.670;2022-10-20T04:18:19;101331.94;;;7.54;80.69
41712;BME280;27399;51.516;13.670;2022-10-20T04:20:46;101337.31;;;7.57;80.80
41712;BME280;27399;51.516;13.670;2022-10-20T04:23:13;101329.50;;;7.65;81.74
41712;BME280;27399;51.516;13.670;2022-10-20T04:25:40;101336.84;;;7.33;81.95
41712;BME280;27399;51.516;13.670;2022-10-20T04:28:11;101327.81;;;7.70;81.33
41712;BME280;27399;51.516;13.670;2022-10-20T04:30:38;101322.22;;;7.55;81.84
41712;BME280;27399;51.516;13.670;2022-10-20T04:33:03;101314.44;;;7.66;82.88
41712;BME280;27399;51.516;13.670;2022-10-20T04:35:29;101314.56;;;7.72;83.38
41712;BME280;27399;51.516;13.670;2022-10-20T04:37:55;101308.44;;;7.76;81.94
41712;BME280;27399;51.516;13.670;2022-10-20T04:40:20;101314.66;;;7.78;84.88
41712;BME280;27399;51.516;13.670;2022-10-20T04:42:46;101311.38;;;7.95;83.12
41712;BME280;27399;51.516;13.670;2022-10-20T04:45:11;101308.78;;;7.96;83.14
41712;BME280;27399;51.516;13.670;2022-10-20T04:47:37;101301.81;;;8.04;82.81
41712;BME280;27399;51.516;13.670;2022-10-20T04:50:03;101290.31;;;8.05;82.18
41712;BME280;27399;51.516;13.670;2022-10-20T04:52:30;101281.38;;;8.00;81.88
41712;BME280;27399;51.516;13.670;2022-10-20T04:54:55;101281.63;;;8.17;82.28
41712;BME280;27399;51.516;13.670;2022-10-20T04:57:21;101281.44;;;8.05;83.49
41712;BME280;27399;51.516;13.670;2022-10-20T04:59:47;101278.78;;;8.05;83.39
41712;BME280;27399;51.516;13.670;2022-10-20T05:02:13;101277.19;;;8.16;83.36
41712;BME280;27399;51.516;13.670;2022-10-20T05:04:38;101275.63;;;8.29;84.44
41712;BME280;27399;51.516;13.670;2022-10-20T05:07:04;101278.44;;;8.40;85.00
41712;BME280;27399;51.516;13.670;2022-10-20T05:09:30;101280.22;;;8.41;84.63
41712;BME280;27399;51.516;13.670;2022-10-20T05:11:57;101277.44;;;8.33;85.13
41712;BME280;27399;51.516;13.670;2022-10-20T05:14:23;101275.00;;;8.47;84.40
41712;BME280;27399;51.516;13.670;2022-10-20T05:16:49;101265.28;;;8.48;84.48
41712;BME280;27399;51.516;13.670;2022-10-20T05:19:15;101261.81;;;8.53;84.27
41712;BME280;27399;51.516;13.670;2022-10-20T05:21:41;101265.00;;;8.31;83.76
41712;BME280;27399;51.516;13.670;2022-10-20T05:24:06;101262.53;;;8.43;84.44
41712;BME280;27399;51.516;13.670;2022-10-20T05:26:34;101263.66;;;8.59;84.00
41712;BME280;27399;51.516;13.670;2022-10-20T05:29:06;101272.19;;;8.38;84.17
41712;BME280;27399;51.516;13.670;2022-10-20T05:31:36;101263.47;;;8.45;84.41
41712;BME280;27399;51.516;13.670;2022-10-20T05:34:03;101261.63;;;8.43;84.22
41712;BME280;27399;51.516;13.670;2022-10-20T05:36:28;101262.41;;;8.34;84.33
41712;BME280;27399;51.516;13.670;2022-10-20T05:38:55;101262.53;;;8.45;83.69
41712;BME280;27399;51.516;13.670;2022-10-20T05:41:24;101265.56;;;8.70;83.10
41712;BME280;27399;51.516;13.670;2022-10-20T05:43:53;101263.59;;;8.55;83.57
41712;BME280;27399;51.516;13.670;2022-10-20T05:46:21;101261.84;;;8.55;83.62
41712;BME280;27399;51.516;13.670;2022-10-20T05:48:47;101259.31;;;8.66;82.59
41712;BME280;27399;51.516;13.670;2022-10-20T05:51:18;101268.06;;;8.59;82.71
41712;BME280;27399;51.516;13.670;2022-10-20T05:53:44;101261.81;;;8.53;82.49
41712;BME280;27399;51.516;13.670;2022-10-20T05:56:13;101268.00;;;8.51;82.93
41712;BME280;27399;51.516;13.670;2022-10-20T05:58:41;101269.75;;;8.50;82.92
41712;BME280;27399;51.516;13.670;2022-10-20T06:01:13;101274.38;;;8.65;82.12
41712;BME280;27399;51.516;13.670;2022-10-20T06:03:45;101272.59;;;8.64;82.58
41712;BME280;27399;51.516;13.670;2022-10-20T06:06:11;101276.91;;;8.56;83.00
41712;BME280;27399;51.516;13.670;2022-10-20T06:08:36;101276.09;;;8.63;83.21
41712;BME280;27399;51.516;13.670;2022-10-20T06:11:07;101266.22;;;8.51;84.38
41712;BME280;27399;51.516;13.670;2022-10-20T06:13:33;101279.53;;;8.53;83.15
41712;BME280;27399;51.516;13.670;2022-10-20T06:16:05;101279.41;;;8.45;83.64
41712;BME280;27399;51.516;13.670;2022-10-20T06:18:31;101287.78;;;8.73;83.12
41712;BME280;27399;51.516;13.670;2022-10-20T06:21:02;101288.53;;;8.63;83.54
41712;BME280;27399;51.516;13.670;2022-10-20T06:23:28;101286.81;;;8.68;83.03
41712;BME280;27399;51.516;13.670;2022-10-20T06:25:54;101285.81;;;8.60;83.63
41712;BME280;27399;51.516;13.670;2022-10-20T06:28:20;101285.13;;;8.75;83.50
41712;BME280;27399;51.516;13.670;2022-10-20T06:30:45;101289.34;;;8.59;84.30
41712;BME280;27399;51.516;13.670;2022-10-20T06:33:12;101281.59;;;8.74;83.47
41712;BME280;27399;51.516;13.670;2022-10-20T06:35:39;101287.13;;;8.91;84.16
41712;BME280;27399;51.516;13.670;2022-10-20T06:38:05;101291.41;;;8.80;84.10
41712;BME280;27399;51.516;13.670;2022-10-20T06:40:30;101297.56;;;8.76;84.06
41712;BME280;27399;51.516;13.670;2022-10-20T06:42:56;101290.66;;;8.92;84.08
41712;BME280;27399;51.516;13.670;2022-10-20T06:45:21;101290.44;;;8.75;84.31
41712;BME280;27399;51.516;13.670;2022-10-20T06:47:47;101294.03;;;8.75;85.03
41712;BME280;27399;51.516;13.670;2022-10-20T06:50:12;101293.22;;;8.82;84.83
41712;BME280;27399;51.516;13.670;2022-10-20T06:52:38;101290.72;;;8.95;84.88
41712;BME280;27399;51.516;13.670;2022-10-20T06:55:04;101289.78;;;8.93;85.22
41712;BME280;27399;51.516;13.670;2022-10-20T06:57:30;101295.06;;;8.90;85.53
41712;BME280;27399;51.516;13.670;2022-10-20T06:59:56;101296.13;;;9.06;85.21
41712;BME280;27399;51.516;13.670;2022-10-20T07:02:22;101302.47;;;9.17;85.04
41712;BME280;27399;51.516;13.670;2022-10-20T07:04:51;101303.41;;;9.18;85.28
41712;BME280;27399;51.516;13.670;2022-10-20T07:07:16;101307.03;;;9.27;85.30
41712;BME280;27399;51.516;13.670;2022-10-20T07:09:42;101309.69;;;9.26;85.83
41712;BME280;27399;51.516;13.670;2022-10-20T07:12:08;101314.28;;;9.41;85.17
41712;BME280;27399;51.516;13.670;2022-10-20T07:14:33;101302.84;;;9.51;85.76
41712;BME280;27399;51.516;13.670;2022-10-20T07:17:03;101310.66;;;9.31;85.81
41712;BME280;27399;51.516;13.670;2022-10-20T07:19:28;101303.84;;;9.63;85.30
41712;BME280;27399;51.516;13.670;2022-10-20T07:21:54;101295.03;;;9.68;85.27
41712;BME280;27399;51.516;13.670;2022-10-20T07:24:20;101297.44;;;9.43;86.18
41712;BME280;27399;51.516;13.670;2022-10-20T07:26:46;101290.69;;;9.80;85.60
41712;BME280;27399;51.516;13.670;2022-10-20T07:29:12;101287.88;;;9.63;86.08
41712;BME280;27399;51.516;13.670;2022-10-20T07:31:42;101294.28;;;9.85;85.84
41712;BME280;27399;51.516;13.670;2022-10-20T07:34:09;101299.72;;;9.96;85.73
41712;BME280;27399;51.516;13.670;2022-10-20T07:36:37;101294.47;;;10.10;85.38
41712;BME280;27399;51.516;13.670;2022-10-20T07:39:05;101297.09;;;10.03;85.42
41712;BME280;27399;51.516;13.670;2022-10-20T07:41:31;101290.94;;;10.11;85.18
41712;BME280;27399;51.516;13.670;2022-10-20T07:43:58;101271.53;;;10.35;84.23
41712;BME280;27399;51.516;13.670;2022-10-20T07:46:24;101280.47;;;10.38;84.43
41712;BME280;27399;51.516;13.670;2022-10-20T07:48:50;101283.09;;;10.34;85.05
41712;BME280;27399;51.516;13.670;2022-10-20T07:54:00;101286.88;;;10.70;83.47
41712;BME280;27399;51.516;13.670;2022-10-20T07:56:34;101276.13;;;10.59;84.92
41712;BME280;27399;51.516;13.670;2022-10-20T07:59:00;101281.50;;;10.64;84.89
41712;BME280;27399;51.516;13.670;2022-10-20T08:01:26;101268.25;;;10.78;84.35
41712;BME280;27399;51.516;13.670;2022-10-20T08:03:52;101262.03;;;10.85;83.90
41712;BME280;27399;51.516;13.670;2022-10-20T08:06:17;101260.25;;;10.89;83.33
41712;BME280;27399;51.516;13.670;2022-10-20T08:08:43;101263.78;;;10.74;83.38
41712;BME280;27399;51.516;13.670;2022-10-20T08:11:09;101242.41;;;10.67;82.75
41712;BME280;27399;51.516;13.670;2022-10-20T08:13:35;101248.75;;;11.02;82.72
41712;BME280;27399;51.516;13.670;2022-10-20T08:16:00;101249.66;;;10.99;84.34
41712;BME280;27399;51.516;13.670;2022-10-20T08:18:26;101240.72;;;11.00;82.92
41712;BME280;27399;51.516;13.670;2022-10-20T08:20:52;101231.88;;;11.23;82.72
41712;BME280;27399;51.516;13.670;2022-10-20T08:23:18;101241.69;;;11.34;81.47
41712;BME280;27399;51.516;13.670;2022-10-20T08:25:43;101236.34;;;11.32;81.56
41712;BME280;27399;51.516;13.670;2022-10-20T08:28:09;101236.34;;;11.21;82.46
41712;BME280;27399;51.516;13.670;2022-10-20T08:30:36;101236.38;;;11.68;81.71
41712;BME280;27399;51.516;13.670;2022-10-20T08:33:02;101242.59;;;11.79;80.99
41712;BME280;27399;51.516;13.670;2022-10-20T08:35:28;101243.53;;;11.80;81.85
41712;BME280;27399;51.516;13.670;2022-10-20T08:37:53;101231.03;;;11.78;80.59
41712;BME280;27399;51.516;13.670;2022-10-20T08:40:23;101219.41;;;11.97;80.56
41712;BME280;27399;51.516;13.670;2022-10-20T08:42:49;101215.91;;;11.99;80.56
41712;BME280;27399;51.516;13.670;2022-10-20T08:45:25;101213.16;;;12.19;80.48
41712;BME280;27399;51.516;13.670;2022-10-20T08:47:54;101201.56;;;12.36;81.71
41712;BME280;27399;51.516;13.670;2022-10-20T08:50:21;101204.22;;;12.37;81.68
41712;BME280;27399;51.516;13.670;2022-10-20T08:52:52;101197.84;;;12.69;78.14
41712;BME280;27399;51.516;13.670;2022-10-20T08:55:31;101203.19;;;12.69;78.69
41712;BME280;27399;51.516;13.670;2022-10-20T09:01:28;101198.50;;;13.10;77.46
41712;BME280;27399;51.516;13.670;2022-10-20T09:04:23;101193.25;;;12.90;79.95
41712;BME280;27399;51.516;13.670;2022-10-20T09:06:53;101189.44;;;13.27;76.68
41712;BME280;27399;51.516;13.670;2022-10-20T09:09:22;101189.38;;;13.36;76.78
41712;BME280;27399;51.516;13.670;2022-10-20T09:11:48;101188.50;;;13.34;77.43
41712;BME280;27399;51.516;13.670;2022-10-20T09:14:14;101186.50;;;13.64;77.26
41712;BME280;27399;51.516;13.670;2022-10-20T09:16:42;101185.66;;;13.59;76.30
41712;BME280;27399;51.516;13.670;2022-10-20T09:19:19;101181.84;;;13.85;76.17
41712;BME280;27399;51.516;13.670;2022-10-20T09:21:48;101182.69;;;13.91;77.47
41712;BME280;27399;51.516;13.670;2022-10-20T09:24:16;101173.84;;;13.82;74.61
41712;BME280;27399;51.516;13.670;2022-10-20T09:26:45;101182.69;;;13.90;74.29
41712;BME280;27399;51.516;13.670;2022-10-20T09:31:44;101178.94;;;14.06;75.03
41712;BME280;27399;51.516;13.670;2022-10-20T09:34:42;101165.09;;;14.44;73.87
41712;BME280;27399;51.516;13.670;2022-10-20T09:39:42;101173.03;;;14.54;71.32
41712;BME280;27399;51.516;13.670;2022-10-20T09:42:18;101170.13;;;14.71;71.44
41712;BME280;27399;51.516;13.670;2022-10-20T09:44:49;101171.81;;;14.79;71.57
41712;BME280;27399;51.516;13.670;2022-10-20T09:47:16;101153.03;;;14.79;71.25
41712;BME280;27399;51.516;13.670;2022-10-20T09:49:43;101153.78;;;14.87;71.60
41712;BME280;27399;51.516;13.670;2022-10-20T09:52:20;101154.78;;;14.81;70.98
41712;BME280;27399;51.516;13.670;2022-10-20T09:54:49;101137.72;;;14.84;70.96
41712;BME280;27399;51.516;13.670;2022-10-20T09:57:19;101137.50;;;14.98;70.46
41712;BME280;27399;51.516;13.670;2022-10-20T09:59:51;101140.31;;;14.92;71.87
41712;BME280;27399;51.516;13.670;2022-10-20T10:04:46;101132.34;;;14.84;72.87
41712;BME280;27399;51.516;13.670;2022-10-20T10:07:30;101121.84;;;14.67;71.15
41712;BME280;27399;51.516;13.670;2022-10-20T10:10:04;101132.44;;;14.78;70.80
41712;BME280;27399;51.516;13.670;2022-10-20T10:12:31;101114.56;;;14.77;70.06
41712;BME280;27399;51.516;13.670;2022-10-20T10:17:38;101121.34;;;15.02;67.79
41712;BME280;27399;51.516;13.670;2022-10-20T10:22:37;101120.41;;;15.03;71.91
41712;BME280;27399;51.516;13.670;2022-10-20T10:25:04;101121.19;;;15.10;71.54
41712;BME280;27399;51.516;13.670;2022-10-20T10:27:35;101107.41;;;15.32;70.12
41712;BME280;27399;51.516;13.670;2022-10-20T10:30:29;101112.34;;;15.05;66.53
41712;BME280;27399;51.516;13.670;2022-10-20T10:32:58;101109.50;;;15.14;66.60
41712;BME280;27399;51.516;13.670;2022-10-20T10:35:40;101101.31;;;15.22;67.49
41712;BME280;27399;51.516;13.670;2022-10-20T10:38:11;101096.00;;;15.19;65.67
41712;BME280;27399;51.516;13.670;2022-10-20T10:46:18;101083.78;;;15.51;65.96
41712;BME280;27399;51.516;13.670;2022-10-20T10:48:59;101082.72;;;15.08;66.15
41712;BME280;27399;51.516;13.670;2022-10-20T10:51:47;101065.13;;;15.42;65.71
41712;BME280;27399;51.516;13.670;2022-10-20T10:57:23;101058.94;;;15.84;66.92
41712;BME280;27399;51.516;13.670;2022-10-20T10:59:51;101057.06;;;15.90;65.82
41712;BME280;27399;51.516;13.670;2022-10-20T11:18:51;101038.47;;;16.22;63.35
41712;BME280;27399;51.516;13.670;2022-10-20T11:21:27;101037.34;;;16.31;61.51
41712;BME280;27399;51.516;13.670;2022-10-20T11:27:06;101021.22;;;16.31;61.47
41712;BME280;27399;51.516;13.670;2022-10-20T11:29:44;101021.72;;;16.48;61.86
41712;BME280;27399;51.516;13.670;2022-10-20T11:38:08;101015.59;;;16.41;63.54
41712;BME280;27399;51.516;13.670;2022-10-20T11:40:43;101000.47;;;16.36;62.55
41712;BME280;27399;51.516;13.670;2022-10-20T11:45:55;101003.91;;;16.41;63.13
41712;BME280;27399;51.516;13.670;2022-10-20T11:48:43;101009.25;;;16.44;61.17
41712;BME280;27399;51.516;13.670;2022-10-20T11:52:12;101004.88;;;16.40;63.59
41712;BME280;27399;51.516;13.670;2022-10-20T11:59:50;100993.03;;;16.83;61.05
41712;BME280;27399;51.516;13.670;2022-10-20T12:15:46;100980.84;;;17.04;60.31
41712;BME280;27399;51.516;13.670;2022-10-20T12:18:33;100981.47;;;17.14;58.96
41712;BME280;27399;51.516;13.670;2022-10-20T12:21:10;100979.25;;;17.30;58.99
41712;BME280;27399;51.516;13.670;2022-10-20T12:34:47;100952.66;;;17.49;59.40
41712;BME280;27399;51.516;13.670;2022-10-20T12:37:18;100959.47;;;17.63;63.17
41712;BME280;27399;51.516;13.670;2022-10-20T12:39:47;100948.94;;;17.54;63.09
41712;BME280;27399;51.516;13.670;2022-10-20T12:42:22;100951.34;;;17.33;62.32
41712;BME280;27399;51.516;13.670;2022-10-20T12:44:49;100946.28;;;17.52;61.79
41712;BME280;27399;51.516;13.670;2022-10-20T12:47:28;100931.09;;;17.49;61.77
41712;BME280;27399;51.516;13.670;2022-10-20T12:50:07;100924.06;;;17.44;61.49
41712;BME280;27399;51.516;13.670;2022-10-20T12:52:45;100918.88;;;17.36;60.49
41712;BME280;27399;51.516;13.670;2022-10-20T12:55:17;100924.06;;;17.44;62.18
41712;BME280;27399;51.516;13.670;2022-10-20T12:57:45;100922.34;;;17.41;62.42
41712;BME280;27399;51.516;13.670;2022-10-20T13:02:57;100923.91;;;17.50;60.02
41712;BME280;27399;51.516;13.670;2022-10-20T13:05:42;100907.72;;;17.50;61.27
41712;BME280;27399;51.516;13.670;2022-10-20T13:10:43;100904.19;;;17.46;60.96
41712;BME280;27399;51.516;13.670;2022-10-20T13:18:22;100892.53;;;17.46;61.13
41712;BME280;27399;51.516;13.670;2022-10-20T13:21:21;100898.91;;;17.43;62.53
41712;BME280;27399;51.516;13.670;2022-10-20T13:23:55;100898.63;;;17.53;62.85
41712;BME280;27399;51.516;13.670;2022-10-20T13:26:30;100905.03;;;17.48;64.59
41712;BME280;27399;51.516;13.670;2022-10-20T13:28:59;100891.66;;;17.14;61.25
41712;BME280;27399;51.516;13.670;2022-10-20T13:34:28;100888.13;;;17.43;59.83
41712;BME280;27399;51.516;13.670;2022-10-20T13:40:09;100888.03;;;17.46;63.34
41712;BME280;27399;51.516;13.670;2022-10-20T13:48:11;100870.19;;;17.72;63.51
41712;BME280;27399;51.516;13.670;2022-10-20T13:50:39;100856.31;;;17.85;61.62
41712;BME280;27399;51.516;13.670;2022-10-20T13:53:18;100851.91;;;17.82;62.31
41712;BME280;27399;51.516;13.670;2022-10-20T13:58:22;100851.09;;;18.08;61.06
41712;BME280;27399;51.516;13.670;2022-10-20T14:01:14;100838.78;;;17.70;58.60
41712;BME280;27399;51.516;13.670;2022-10-20T14:03:48;100851.78;;;17.85;59.24
41712;BME280;27399;51.516;13.670;2022-10-20T14:06:33;100850.56;;;17.97;61.73
41712;BME280;27399;51.516;13.670;2022-10-20T14:09:15;100853.78;;;18.08;58.01
41712;BME280;27399;51.516;13.670;2022-10-20T14:11:55;100849.78;;;17.92;60.52
41712;BME280;27399;51.516;13.670;2022-10-20T14:14:25;100840.38;;;18.05;60.79
41712;BME280;27399;51.516;13.670;2022-10-20T14:16:57;100843.06;;;18.05;62.58
41712;BME280;27399;51.516;13.670;2022-10-20T14:19:25;100842.31;;;18.02;60.93
41712;BME280;27399;51.516;13.670;2022-10-20T14:21:57;100841.03;;;17.84;62.29
41712;BME280;27399;51.516;13.670;2022-10-20T14:24:28;100845.03;;;18.00;63.11
41712;BME280;27399;51.516;13.670;2022-10-20T14:26:57;100841.25;;;17.77;59.04
41712;BME280;27399;51.516;13.670;2022-10-20T14:29:27;100852.06;;;17.76;57.94
41712;BME280;27399;51.516;13.670;2022-10-20T14:31:53;100855.22;;;17.90;58.44
41712;BME280;27399;51.516;13.670;2022-10-20T14:34:23;100843.34;;;17.68;58.62
41712;BME280;27399;51.516;13.670;2022-10-20T14:36:50;100865.16;;;17.60;58.44
41712;BME280;27399;51.516;13.670;2022-10-20T14:39:38;100857.06;;;17.60;61.39
41712;BME280;27399;51.516;13.670;2022-10-20T14:42:20;100851.34;;;17.41;63.99
41712;BME280;27399;51.516;13.670;2022-10-20T14:44:48;100863.53;;;17.54;61.54
41712;BME280;27399;51.516;13.670;2022-10-20T14:47:15;100853.09;;;17.43;58.99
41712;BME280;27399;51.516;13.670;2022-10-20T14:49:47;100841.91;;;17.26;60.42
41712;BME280;27399;51.516;13.670;2022-10-20T14:54:43;100832.31;;;17.15;65.87
41712;BME280;27399;51.516;13.670;2022-10-20T14:59:36;100817.06;;;17.14;66.71
41712;BME280;27399;51.516;13.670;2022-10-20T15:02:16;100807.63;;;16.99;68.00
41712;BME280;27399;51.516;13.670;2022-10-20T15:04:46;100798.94;;;16.88;68.38
41712;BME280;27399;51.516;13.670;2022-10-20T15:07:32;100796.91;;;16.65;69.84
41712;BME280;27399;51.516;13.670;2022-10-20T15:10:05;100791.41;;;16.69;70.30
41712;BME280;27399;51.516;13.670;2022-10-20T15:17:52;100798.75;;;16.63;67.80
41712;BME280;27399;51.516;13.670;2022-10-20T15:20:35;100796.50;;;16.47;69.26
41712;BME280;27399;51.516;13.670;2022-10-20T15:23:28;100797.06;;;16.25;69.29